sensor_id;sensor_type;location;lat;lon;timestamp;pressure;altitude;pressure_sealevel;temperature;humidity
68873;BME280;55907;50.806;12.882;2023-05-21T00:01:14;975.3;;;16.2;74.6
68873;BME280;55907;50.806;12.882;2023-05-21T00:04:16;975.2;;;16.3;74.4
68873;BME280;55907;50.806;12.882;2023-05-21T00:07:17;975.2;;;16.3;73.8
68873;BME280;55907;50.806;12.882;2023-05-21T00:10:19;975.2;;;16.4;73.1
68873;BME280;55907;50.806;12.882;2023-05-21T00:13:20;975.2;;;16.5;72.7
68873;BME280;55907;50.806;12.882;2023-05-21T00:16:22;975.1;;;16.5;72.3
68873;BME280;55907;50.806;12.882;2023-05-21T00:19:23;975.1;;;16.6;72.5
68873;BME280;55907;50.806;12.882;2023-05-21T00:22:25;975.1;;;16.6;71.9
68873;BME280;55907;50.806;12.882;2023-05-21T00:25:26;975.0;;;16.7;71.6
68873;BME280;55907;50.806;12.882;2023-05-21T00:28:27;975.0;;;16.7;71.6
68873;BME280;55907;50.806;12.882;2023-05-21T00:31:29;974.9;;;16.8;71.8
68873;BME280;55907;50.806;12.882;2023-05-21T00:34:30;974.9;;;16.8;71.7
68873;BME280;55907;50.806;12.882;2023-05-21T00:37:32;975.0;;;16.7;71.9
68873;BME280;55907;50.806;12.882;2023-05-21T00:40:34;974.9;;;16.7;71.7
68873;BME280;55907;50.806;12.882;2023-05-21T00:43:35;975.0;;;16.7;71.8
68873;BME280;55907;50.806;12.882;2023-05-21T00:46:36;974.9;;;16.7;72.0
68873;BME280;55907;50.806;12.882;2023-05-21T00:49:38;974.9;;;16.6;72.0
68873;BME280;55907;50.806;12.882;2023-05-21T00:52:39;974.9;;;16.6;72.1
68873;BME280;55907;50.806;12.882;2023-05-21T00:55:40;974.9;;;16.6;72.0
68873;BME280;55907;50.806;12.882;2023-05-21T00:58:42;974.9;;;16.6;72.1
68873;BME280;55907;50.806;12.882;2023-05-21T01:01:43;974.9;;;16.6;72.4
68873;BME280;55907;50.806;12.882;2023-05-21T01:04:45;974.9;;;16.6;72.3
68873;BME280;55907;50.806;12.882;2023-05-21T01:07:46;974.9;;;16.6;72.3
68873;BME280;55907;50.806;12.882;2023-05-21T01:10:48;974.8;;;16.5;72.6
68873;BME280;55907;50.806;12.882;2023-05-21T01:13:49;974.8;;;16.5;72.9
68873;BME280;55907;50.806;12.882;2023-05-21T01:16:51;974.8;;;16.5;72.9
68873;BME280;55907;50.806;12.882;2023-05-21T01:22:54;974.7;;;16.4;73.2
68873;BME280;55907;50.806;12.882;2023-05-21T01:25:55;974.7;;;16.3;73.4
68873;BME280;55907;50.806;12.882;2023-05-21T01:28:56;974.7;;;16.3;73.5
68873;BME280;55907;50.806;12.882;2023-05-21T01:32:03;974.6;;;16.3;73.6
68873;BME280;55907;50.806;12.882;2023-05-21T01:35:02;974.6;;;16.3;73.8
68873;BME280;55907;50.806;12.882;2023-05-21T01:38:04;974.6;;;16.2;74.3
68873;BME280;55907;50.806;12.882;2023-05-21T01:41:06;974.6;;;16.2;74.3
68873;BME280;55907;50.806;12.882;2023-05-21T01:47:05;974.5;;;16.1;74.6
68873;BME280;55907;50.806;12.882;2023-05-21T01:50:07;974.6;;;16.0;75.2
68873;BME280;55907;50.806;12.882;2023-05-21T01:59:11;974.6;;;15.9;75.3
68873;BME280;55907;50.806;12.882;2023-05-21T02:02:12;974.6;;;15.9;75.4
68873;BME280;55907;50.806;12.882;2023-05-21T02:05:14;974.6;;;15.9;76.0
68873;BME280;55907;50.806;12.882;2023-05-21T02:08:15;974.6;;;15.9;75.5
68873;BME280;55907;50.806;12.882;2023-05-21T02:11:16;974.6;;;15.8;75.6
68873;BME280;55907;50.806;12.882;2023-05-21T02:14:18;974.5;;;15.9;75.3
68873;BME280;55907;50.806;12.882;2023-05-21T02:17:19;974.6;;;15.8;75.7
68873;BME280;55907;50.806;12.882;2023-05-21T02:20:21;974.5;;;15.9;75.3
68873;BME280;55907;50.806;12.882;2023-05-21T02:23:22;974.5;;;15.8;75.4
68873;BME280;55907;50.806;12.882;2023-05-21T02:35:28;974.4;;;15.7;76.4
68873;BME280;55907;50.806;12.882;2023-05-21T02:38:29;974.4;;;15.6;76.8
68873;BME280;55907;50.806;12.882;2023-05-21T02:41:31;974.3;;;15.6;76.3
68873;BME280;55907;50.806;12.882;2023-05-21T02:47:34;974.3;;;15.5;76.3
68873;BME280;55907;50.806;12.882;2023-05-21T02:50:35;974.2;;;15.5;76.1
68873;BME280;55907;50.806;12.882;2023-05-21T02:53:37;974.2;;;15.5;76.4
68873;BME280;55907;50.806;12.882;2023-05-21T02:56:38;974.3;;;15.5;76.3
68873;BME280;55907;50.806;12.882;2023-05-21T02:59:39;974.2;;;15.5;76.7
68873;BME280;55907;50.806;12.882;2023-05-21T03:02:41;974.2;;;15.5;76.5
68873;BME280;55907;50.806;12.882;2023-05-21T03:05:42;974.2;;;15.4;76.8
68873;BME280;55907;50.806;12.882;2023-05-21T03:08:44;974.2;;;15.4;77.1
68873;BME280;55907;50.806;12.882;2023-05-21T03:11:45;974.2;;;15.4;76.7
68873;BME280;55907;50.806;12.882;2023-05-21T03:14:47;974.1;;;15.4;76.3
68873;BME280;55907;50.806;12.882;2023-05-21T03:17:48;974.1;;;15.4;76.8
68873;BME280;55907;50.806;12.882;2023-05-21T03:20:49;974.1;;;15.4;77.2
68873;BME280;55907;50.806;12.882;2023-05-21T03:23:51;974.2;;;15.4;76.4
68873;BME280;55907;50.806;12.882;2023-05-21T03:26:52;974.2;;;15.4;77.2
68873;BME280;55907;50.806;12.882;2023-05-21T03:29:54;974.3;;;15.4;77.0
68873;BME280;55907;50.806;12.882;2023-05-21T03:32:55;974.3;;;15.4;77.3
68873;BME280;55907;50.806;12.882;2023-05-21T03:35:57;974.3;;;15.5;76.8
68873;BME280;55907;50.806;12.882;2023-05-21T03:38:58;974.3;;;15.6;76.9
68873;BME280;55907;50.806;12.882;2023-05-21T03:42:00;974.3;;;15.6;76.4
68873;BME280;55907;50.806;12.882;2023-05-21T03:45:02;974.3;;;15.6;76.4
68873;BME280;55907;50.806;12.882;2023-05-21T03:48:03;974.3;;;15.7;76.0
68873;BME280;55907;50.806;12.882;2023-05-21T03:51:04;974.4;;;15.8;75.8
68873;BME280;55907;50.806;12.882;2023-05-21T03:54:05;974.4;;;15.8;75.7
68873;BME280;55907;50.806;12.882;2023-05-21T03:57:07;974.4;;;15.9;75.6
68873;BME280;55907;50.806;12.882;2023-05-21T04:00:09;974.4;;;15.9;76.1
68873;BME280;55907;50.806;12.882;2023-05-21T04:03:10;974.4;;;16.0;75.4
68873;BME280;55907;50.806;12.882;2023-05-21T04:06:11;974.5;;;16.0;75.3
68873;BME280;55907;50.806;12.882;2023-05-21T04:12:14;974.4;;;16.3;74.2
68873;BME280;55907;50.806;12.882;2023-05-21T04:15:15;974.4;;;16.4;73.7
68873;BME280;55907;50.806;12.882;2023-05-21T04:18:17;974.5;;;16.5;73.9
68873;BME280;55907;50.806;12.882;2023-05-21T04:21:18;974.4;;;16.5;73.4
68873;BME280;55907;50.806;12.882;2023-05-21T04:24:20;974.5;;;16.5;73.6
68873;BME280;55907;50.806;12.882;2023-05-21T04:27:21;974.5;;;16.6;73.9
68873;BME280;55907;50.806;12.882;2023-05-21T04:30:22;974.5;;;16.7;73.5
68873;BME280;55907;50.806;12.882;2023-05-21T04:33:24;974.5;;;16.8;72.3
68873;BME280;55907;50.806;12.882;2023-05-21T04:36:25;974.4;;;16.9;72.2
68873;BME280;55907;50.806;12.882;2023-05-21T04:39:27;974.5;;;17.0;72.1
68873;BME280;55907;50.806;12.882;2023-05-21T04:42:28;974.4;;;17.2;71.5
68873;BME280;55907;50.806;12.882;2023-05-21T04:45:30;974.5;;;17.3;70.7
68873;BME280;55907;50.806;12.882;2023-05-21T04:48:31;974.5;;;17.6;71.2
68873;BME280;55907;50.806;12.882;2023-05-21T04:51:32;974.5;;;17.6;71.0
68873;BME280;55907;50.806;12.882;2023-05-21T04:54:34;974.5;;;17.7;71.2
68873;BME280;55907;50.806;12.882;2023-05-21T04:57:36;974.5;;;17.8;70.0
68873;BME280;55907;50.806;12.882;2023-05-21T05:00:37;974.5;;;17.9;69.9
68873;BME280;55907;50.806;12.882;2023-05-21T05:03:38;974.5;;;18.1;70.2
68873;BME280;55907;50.806;12.882;2023-05-21T05:06:40;974.5;;;18.5;69.1
68873;BME280;55907;50.806;12.882;2023-05-21T05:09:42;974.4;;;18.7;67.6
68873;BME280;55907;50.806;12.882;2023-05-21T05:12:42;974.5;;;19.0;67.8
68873;BME280;55907;50.806;12.882;2023-05-21T05:15:44;974.5;;;19.1;66.9
68873;BME280;55907;50.806;12.882;2023-05-21T05:18:45;974.5;;;19.3;65.8
68873;BME280;55907;50.806;12.882;2023-05-21T05:21:47;974.5;;;19.4;65.6
68873;BME280;55907;50.806;12.882;2023-05-21T05:24:48;974.5;;;19.4;65.0
68873;BME280;55907;50.806;12.882;2023-05-21T05:27:49;974.5;;;19.5;65.0
68873;BME280;55907;50.806;12.882;2023-05-21T05:30:51;974.5;;;19.6;64.7
68873;BME280;55907;50.806;12.882;2023-05-21T05:33:52;974.5;;;19.6;65.2
68873;BME280;55907;50.806;12.882;2023-05-21T05:39:55;974.5;;;19.8;64.9
68873;BME280;55907;50.806;12.882;2023-05-21T05:42:56;974.6;;;19.9;64.1
68873;BME280;55907;50.806;12.882;2023-05-21T05:45:58;974.5;;;20.0;64.2
68873;BME280;55907;50.806;12.882;2023-05-21T05:48:59;974.5;;;20.0;63.9
68873;BME280;55907;50.806;12.882;2023-05-21T05:52:00;974.5;;;19.9;63.6
68873;BME280;55907;50.806;12.882;2023-05-21T05:55:02;974.5;;;19.8;64.6
68873;BME280;55907;50.806;12.882;2023-05-21T05:58:03;974.5;;;19.7;64.0
68873;BME280;55907;50.806;12.882;2023-05-21T06:01:05;974.5;;;19.6;64.3
68873;BME280;55907;50.806;12.882;2023-05-21T06:04:06;974.5;;;20.0;64.0
68873;BME280;55907;50.806;12.882;2023-05-21T06:07:07;974.5;;;20.5;62.1
68873;BME280;55907;50.806;12.882;2023-05-21T06:10:09;974.4;;;21.1;60.7
68873;BME280;55907;50.806;12.882;2023-05-21T06:13:10;974.4;;;21.5;58.8
68873;BME280;55907;50.806;12.882;2023-05-21T06:19:13;974.4;;;21.6;58.4
68873;BME280;55907;50.806;12.882;2023-05-21T06:22:14;974.4;;;21.8;58.9
68873;BME280;55907;50.806;12.882;2023-05-21T06:25:16;974.4;;;21.7;57.9
68873;BME280;55907;50.806;12.882;2023-05-21T06:28:17;974.3;;;21.7;57.8
68873;BME280;55907;50.806;12.882;2023-05-21T06:31:18;974.4;;;21.6;58.0
68873;BME280;55907;50.806;12.882;2023-05-21T06:34:20;974.3;;;21.5;58.5
68873;BME280;55907;50.806;12.882;2023-05-21T06:37:21;974.4;;;21.5;59.4
68873;BME280;55907;50.806;12.882;2023-05-21T06:40:23;974.4;;;21.8;59.3
68873;BME280;55907;50.806;12.882;2023-05-21T06:43:24;974.4;;;22.1;58.5
68873;BME280;55907;50.806;12.882;2023-05-21T06:46:25;974.4;;;22.4;56.2
68873;BME280;55907;50.806;12.882;2023-05-21T06:49:27;974.3;;;22.5;55.2
68873;BME280;55907;50.806;12.882;2023-05-21T06:52:28;974.3;;;22.9;54.3
68873;BME280;55907;50.806;12.882;2023-05-21T06:55:29;974.3;;;23.3;52.3
68873;BME280;55907;50.806;12.882;2023-05-21T06:58:31;974.3;;;23.7;51.5
68873;BME280;55907;50.806;12.882;2023-05-21T07:01:32;974.3;;;24.4;51.0
68873;BME280;55907;50.806;12.882;2023-05-21T07:04:34;974.4;;;24.8;49.3
68873;BME280;55907;50.806;12.882;2023-05-21T07:07:35;974.4;;;25.3;48.7
68873;BME280;55907;50.806;12.882;2023-05-21T07:10:36;974.4;;;25.4;47.2
68873;BME280;55907;50.806;12.882;2023-05-21T07:13:37;974.5;;;25.4;46.5
68873;BME280;55907;50.806;12.882;2023-05-21T07:19:40;974.4;;;24.5;47.0
68873;BME280;55907;50.806;12.882;2023-05-21T07:25:43;974.4;;;23.9;49.1
68873;BME280;55907;50.806;12.882;2023-05-21T07:28:44;974.4;;;24.0;49.7
68873;BME280;55907;50.806;12.882;2023-05-21T07:34:47;974.4;;;24.4;49.1
68873;BME280;55907;50.806;12.882;2023-05-21T07:37:48;974.4;;;24.5;48.9
68873;BME280;55907;50.806;12.882;2023-05-21T07:40:50;974.4;;;24.5;48.9
68873;BME280;55907;50.806;12.882;2023-05-21T07:46:52;974.3;;;24.5;48.5
68873;BME280;55907;50.806;12.882;2023-05-21T07:49:54;974.4;;;24.4;47.9
68873;BME280;55907;50.806;12.882;2023-05-21T07:55:56;974.4;;;24.0;48.7
68873;BME280;55907;50.806;12.882;2023-05-21T07:58:58;974.5;;;23.9;49.4
68873;BME280;55907;50.806;12.882;2023-05-21T08:01:59;974.4;;;23.9;48.4
68873;BME280;55907;50.806;12.882;2023-05-21T08:05:00;974.5;;;23.9;47.8
68873;BME280;55907;50.806;12.882;2023-05-21T08:08:02;974.5;;;23.9;47.4
68873;BME280;55907;50.806;12.882;2023-05-21T08:11:03;974.5;;;24.0;46.6
68873;BME280;55907;50.806;12.882;2023-05-21T08:14:05;974.5;;;24.2;46.4
68873;BME280;55907;50.806;12.882;2023-05-21T08:20:08;974.6;;;24.5;46.7
68873;BME280;55907;50.806;12.882;2023-05-21T08:26:10;974.6;;;24.8;44.5
68873;BME280;55907;50.806;12.882;2023-05-21T08:29:11;974.6;;;24.8;44.8
68873;BME280;55907;50.806;12.882;2023-05-21T08:38:15;974.6;;;25.0;43.6
68873;BME280;55907;50.806;12.882;2023-05-21T08:41:17;974.6;;;25.5;42.8
68873;BME280;55907;50.806;12.882;2023-05-21T08:44:20;974.6;;;26.2;42.0
68873;BME280;55907;50.806;12.882;2023-05-21T08:47:22;974.6;;;26.9;39.2
68873;BME280;55907;50.806;12.882;2023-05-21T08:50:23;974.7;;;27.7;38.3
68873;BME280;55907;50.806;12.882;2023-05-21T08:53:22;974.7;;;28.1;37.0
68873;BME280;55907;50.806;12.882;2023-05-21T08:56:24;974.6;;;29.1;36.6
68873;BME280;55907;50.806;12.882;2023-05-21T08:59:25;974.6;;;30.2;34.3
68873;BME280;55907;50.806;12.882;2023-05-21T09:02:27;974.7;;;30.6;32.3
68873;BME280;55907;50.806;12.882;2023-05-21T09:05:28;974.7;;;31.2;32.7
68873;BME280;55907;50.806;12.882;2023-05-21T09:08:31;974.6;;;31.9;32.0
68873;BME280;55907;50.806;12.882;2023-05-21T09:11:30;974.6;;;32.4;31.3
68873;BME280;55907;50.806;12.882;2023-05-21T09:14:31;974.7;;;32.3;31.4
68873;BME280;55907;50.806;12.882;2023-05-21T09:17:33;974.6;;;31.8;30.9
68873;BME280;55907;50.806;12.882;2023-05-21T09:23:35;974.6;;;31.4;31.7
68873;BME280;55907;50.806;12.882;2023-05-21T09:26:41;974.5;;;31.5;31.1
68873;BME280;55907;50.806;12.882;2023-05-21T09:29:40;974.6;;;31.9;33.0
68873;BME280;55907;50.806;12.882;2023-05-21T09:32:40;974.6;;;32.0;32.8
68873;BME280;55907;50.806;12.882;2023-05-21T09:38:43;974.6;;;31.5;30.9
68873;BME280;55907;50.806;12.882;2023-05-21T09:44:46;974.6;;;31.4;31.8
68873;BME280;55907;50.806;12.882;2023-05-21T09:47:47;974.6;;;31.1;32.9
68873;BME280;55907;50.806;12.882;2023-05-21T09:50:47;974.6;;;30.7;30.0
68873;BME280;55907;50.806;12.882;2023-05-21T09:53:50;974.6;;;30.6;32.5
68873;BME280;55907;50.806;12.882;2023-05-21T09:56:51;974.5;;;30.6;31.3
68873;BME280;55907;50.806;12.882;2023-05-21T09:59:51;974.5;;;30.7;32.9
68873;BME280;55907;50.806;12.882;2023-05-21T10:02:53;974.6;;;30.4;32.6
68873;BME280;55907;50.806;12.882;2023-05-21T10:05:56;974.6;;;30.2;31.5
68873;BME280;55907;50.806;12.882;2023-05-21T10:08:58;974.6;;;30.4;30.5
68873;BME280;55907;50.806;12.882;2023-05-21T10:11:57;974.5;;;30.4;29.9
68873;BME280;55907;50.806;12.882;2023-05-21T10:14:59;974.5;;;30.3;30.7
68873;BME280;55907;50.806;12.882;2023-05-21T10:21:01;974.5;;;30.0;32.6
68873;BME280;55907;50.806;12.882;2023-05-21T10:24:02;974.5;;;30.2;30.4
68873;BME280;55907;50.806;12.882;2023-05-21T10:27:03;974.5;;;30.2;31.2
68873;BME280;55907;50.806;12.882;2023-05-21T10:30:05;974.5;;;30.4;30.5
68873;BME280;55907;50.806;12.882;2023-05-21T10:36:07;974.4;;;29.6;32.1
68873;BME280;55907;50.806;12.882;2023-05-21T10:39:11;974.4;;;29.8;32.3
68873;BME280;55907;50.806;12.882;2023-05-21T10:42:17;974.3;;;30.0;28.4
68873;BME280;55907;50.806;12.882;2023-05-21T10:45:15;974.4;;;30.1;28.8
68873;BME280;55907;50.806;12.882;2023-05-21T10:48:22;974.3;;;29.8;28.1
68873;BME280;55907;50.806;12.882;2023-05-21T10:51:19;974.3;;;29.7;28.7
68873;BME280;55907;50.806;12.882;2023-05-21T10:54:32;974.3;;;30.0;30.0
68873;BME280;55907;50.806;12.882;2023-05-21T10:57:28;974.3;;;30.3;27.9
68873;BME280;55907;50.806;12.882;2023-05-21T11:00:18;974.3;;;30.0;29.6
68873;BME280;55907;50.806;12.882;2023-05-21T11:03:19;974.3;;;29.9;29.2
68873;BME280;55907;50.806;12.882;2023-05-21T11:09:22;974.2;;;29.6;31.9
68873;BME280;55907;50.806;12.882;2023-05-21T11:12:24;974.2;;;29.8;30.7
68873;BME280;55907;50.806;12.882;2023-05-21T11:15:24;974.1;;;30.0;30.0
68873;BME280;55907;50.806;12.882;2023-05-21T11:21:28;974.2;;;29.1;30.3
68873;BME280;55907;50.806;12.882;2023-05-21T11:24:31;974.2;;;29.1;32.9
68873;BME280;55907;50.806;12.882;2023-05-21T11:27:31;974.2;;;29.1;31.4
68873;BME280;55907;50.806;12.882;2023-05-21T11:33:32;974.1;;;28.3;31.6
68873;BME280;55907;50.806;12.882;2023-05-21T11:36:35;974.1;;;28.2;31.4
68873;BME280;55907;50.806;12.882;2023-05-21T11:48:39;974.1;;;28.2;31.5
68873;BME280;55907;50.806;12.882;2023-05-21T11:54:44;974.0;;;28.1;31.0
68873;BME280;55907;50.806;12.882;2023-05-21T11:57:43;974.0;;;28.0;31.8
68873;BME280;55907;50.806;12.882;2023-05-21T12:00:44;974.0;;;28.2;32.5
68873;BME280;55907;50.806;12.882;2023-05-21T12:03:46;974.0;;;28.5;31.8
68873;BME280;55907;50.806;12.882;2023-05-21T12:06:47;973.9;;;28.8;32.8
68873;BME280;55907;50.806;12.882;2023-05-21T12:09:49;974.0;;;29.0;30.8
68873;BME280;55907;50.806;12.882;2023-05-21T12:12:50;974.0;;;28.7;30.7
68873;BME280;55907;50.806;12.882;2023-05-21T12:15:51;973.9;;;28.6;30.2
68873;BME280;55907;50.806;12.882;2023-05-21T12:21:54;973.9;;;28.8;30.3
68873;BME280;55907;50.806;12.882;2023-05-21T12:24:55;974.0;;;29.1;29.9
68873;BME280;55907;50.806;12.882;2023-05-21T12:27:56;973.8;;;29.3;29.6
68873;BME280;55907;50.806;12.882;2023-05-21T12:30:58;973.8;;;29.1;28.1
68873;BME280;55907;50.806;12.882;2023-05-21T12:33:59;973.8;;;28.7;28.4
68873;BME280;55907;50.806;12.882;2023-05-21T12:37:01;973.8;;;28.6;28.4
68873;BME280;55907;50.806;12.882;2023-05-21T12:40:03;973.7;;;28.7;28.1
68873;BME280;55907;50.806;12.882;2023-05-21T12:43:04;973.7;;;28.6;28.5
68873;BME280;55907;50.806;12.882;2023-05-21T12:46:05;973.8;;;28.8;28.6
68873;BME280;55907;50.806;12.882;2023-05-21T12:49:06;973.8;;;28.8;29.4
68873;BME280;55907;50.806;12.882;2023-05-21T12:52:09;973.7;;;28.6;29.2
68873;BME280;55907;50.806;12.882;2023-05-21T12:55:12;973.7;;;28.6;29.0
68873;BME280;55907;50.806;12.882;2023-05-21T12:58:12;973.7;;;28.7;28.6
68873;BME280;55907;50.806;12.882;2023-05-21T13:01:12;973.8;;;28.8;29.7
68873;BME280;55907;50.806;12.882;2023-05-21T13:04:13;973.6;;;28.7;28.1
68873;BME280;55907;50.806;12.882;2023-05-21T13:07:14;973.6;;;28.6;29.7
68873;BME280;55907;50.806;12.882;2023-05-21T13:10:16;973.6;;;28.6;29.0
68873;BME280;55907;50.806;12.882;2023-05-21T13:19:19;973.5;;;28.6;26.7
68873;BME280;55907;50.806;12.882;2023-05-21T13:28:23;973.4;;;28.6;27.6
68873;BME280;55907;50.806;12.882;2023-05-21T13:31:25;973.4;;;28.4;27.9
68873;BME280;55907;50.806;12.882;2023-05-21T13:34:26;973.4;;;28.1;27.1
68873;BME280;55907;50.806;12.882;2023-05-21T13:37:28;973.4;;;27.8;27.7
68873;BME280;55907;50.806;12.882;2023-05-21T13:40:29;973.3;;;27.9;29.0
68873;BME280;55907;50.806;12.882;2023-05-21T13:43:30;973.3;;;28.0;29.6
68873;BME280;55907;50.806;12.882;2023-05-21T13:46:31;973.2;;;28.3;28.4
68873;BME280;55907;50.806;12.882;2023-05-21T13:49:33;973.3;;;28.5;28.4
68873;BME280;55907;50.806;12.882;2023-05-21T13:52:35;973.4;;;28.5;28.1
68873;BME280;55907;50.806;12.882;2023-05-21T13:55:35;973.3;;;28.4;29.4
68873;BME280;55907;50.806;12.882;2023-05-21T13:58:37;973.4;;;28.5;29.4
68873;BME280;55907;50.806;12.882;2023-05-21T14:01:38;973.4;;;28.2;29.2
68873;BME280;55907;50.806;12.882;2023-05-21T14:04:40;973.4;;;28.0;28.6
68873;BME280;55907;50.806;12.882;2023-05-21T14:07:41;973.3;;;27.8;29.9
68873;BME280;55907;50.806;12.882;2023-05-21T14:10:42;973.4;;;27.7;31.1
68873;BME280;55907;50.806;12.882;2023-05-21T14:13:44;973.4;;;27.6;31.2
68873;BME280;55907;50.806;12.882;2023-05-21T14:16:45;973.3;;;27.6;31.4
68873;BME280;55907;50.806;12.882;2023-05-21T14:22:48;973.4;;;27.6;31.7
68873;BME280;55907;50.806;12.882;2023-05-21T14:25:49;973.4;;;27.8;31.7
68873;BME280;55907;50.806;12.882;2023-05-21T14:28:50;973.4;;;27.9;31.6
68873;BME280;55907;50.806;12.882;2023-05-21T14:31:52;973.4;;;28.0;31.2
68873;BME280;55907;50.806;12.882;2023-05-21T14:34:53;973.3;;;28.0;31.7
68873;BME280;55907;50.806;12.882;2023-05-21T14:37:55;973.4;;;28.0;31.6
68873;BME280;55907;50.806;12.882;2023-05-21T14:43:57;973.4;;;27.9;31.5
68873;BME280;55907;50.806;12.882;2023-05-21T14:46:59;973.3;;;27.9;30.5
68873;BME280;55907;50.806;12.882;2023-05-21T14:53:03;973.3;;;28.1;32.1
68873;BME280;55907;50.806;12.882;2023-05-21T14:56:03;973.2;;;28.0;31.3
68873;BME280;55907;50.806;12.882;2023-05-21T15:02:05;973.1;;;28.1;31.4
68873;BME280;55907;50.806;12.882;2023-05-21T15:11:09;973.2;;;27.7;31.9
68873;BME280;55907;50.806;12.882;2023-05-21T15:14:11;973.1;;;27.6;31.0
68873;BME280;55907;50.806;12.882;2023-05-21T15:17:12;973.1;;;27.4;30.8
68873;BME280;55907;50.806;12.882;2023-05-21T15:20:14;973.1;;;27.2;31.3
68873;BME280;55907;50.806;12.882;2023-05-21T15:23:15;973.1;;;27.2;31.2
68873;BME280;55907;50.806;12.882;2023-05-21T15:26:16;973.1;;;27.1;30.6
68873;BME280;55907;50.806;12.882;2023-05-21T15:29:17;973.0;;;27.1;32.0
68873;BME280;55907;50.806;12.882;2023-05-21T15:32:19;973.1;;;27.0;32.4
68873;BME280;55907;50.806;12.882;2023-05-21T15:35:20;973.1;;;27.0;32.5
68873;BME280;55907;50.806;12.882;2023-05-21T15:38:21;973.1;;;27.0;32.6
68873;BME280;55907;50.806;12.882;2023-05-21T15:41:23;973.1;;;27.2;33.0
68873;BME280;55907;50.806;12.882;2023-05-21T15:47:26;973.1;;;27.2;32.6
68873;BME280;55907;50.806;12.882;2023-05-21T15:50:27;973.1;;;27.1;32.4
68873;BME280;55907;50.806;12.882;2023-05-21T15:53:28;973.1;;;27.1;32.5
68873;BME280;55907;50.806;12.882;2023-05-21T15:56:30;973.1;;;27.1;32.5
68873;BME280;55907;50.806;12.882;2023-05-21T15:59:31;973.1;;;26.9;32.0
68873;BME280;55907;50.806;12.882;2023-05-21T16:02:32;973.1;;;26.9;32.3
68873;BME280;55907;50.806;12.882;2023-05-21T16:05:34;973.1;;;26.8;31.0
68873;BME280;55907;50.806;12.882;2023-05-21T16:08:36;973.1;;;26.6;31.1
68873;BME280;55907;50.806;12.882;2023-05-21T16:11:36;973.0;;;26.5;32.2
68873;BME280;55907;50.806;12.882;2023-05-21T16:14:38;973.0;;;26.4;32.2
68873;BME280;55907;50.806;12.882;2023-05-21T16:17:39;973.0;;;26.4;32.6
68873;BME280;55907;50.806;12.882;2023-05-21T16:20:40;973.0;;;26.3;32.8
68873;BME280;55907;50.806;12.882;2023-05-21T16:23:42;973.0;;;26.2;33.0
68873;BME280;55907;50.806;12.882;2023-05-21T16:26:43;972.9;;;26.2;34.0
68873;BME280;55907;50.806;12.882;2023-05-21T16:29:45;972.9;;;26.3;34.5
68873;BME280;55907;50.806;12.882;2023-05-21T16:32:46;972.9;;;26.2;35.2
68873;BME280;55907;50.806;12.882;2023-05-21T16:35:47;972.9;;;26.2;34.7
68873;BME280;55907;50.806;12.882;2023-05-21T16:38:49;972.9;;;26.0;34.4
68873;BME280;55907;50.806;12.882;2023-05-21T16:41:50;972.8;;;25.8;34.7
68873;BME280;55907;50.806;12.882;2023-05-21T16:44:51;972.9;;;25.8;35.2
68873;BME280;55907;50.806;12.882;2023-05-21T16:47:53;972.8;;;25.7;35.5
68873;BME280;55907;50.806;12.882;2023-05-21T16:50:54;972.8;;;25.7;35.7
68873;BME280;55907;50.806;12.882;2023-05-21T16:53:55;972.9;;;25.5;40.1
68873;BME280;55907;50.806;12.882;2023-05-21T16:59:58;972.9;;;25.4;43.6
68873;BME280;55907;50.806;12.882;2023-05-21T17:03:00;972.9;;;25.3;44.0
68873;BME280;55907;50.806;12.882;2023-05-21T17:06:01;973.0;;;25.3;44.7
68873;BME280;55907;50.806;12.882;2023-05-21T17:09:02;972.9;;;25.1;45.3
68873;BME280;55907;50.806;12.882;2023-05-21T17:12:04;973.0;;;25.0;45.6
68873;BME280;55907;50.806;12.882;2023-05-21T17:15:06;973.0;;;24.9;45.8
68873;BME280;55907;50.806;12.882;2023-05-21T17:18:06;973.0;;;24.8;45.3
68873;BME280;55907;50.806;12.882;2023-05-21T17:21:08;973.1;;;24.6;45.6
68873;BME280;55907;50.806;12.882;2023-05-21T17:27:11;973.1;;;24.5;46.1
68873;BME280;55907;50.806;12.882;2023-05-21T17:30:12;973.1;;;24.4;46.6
68873;BME280;55907;50.806;12.882;2023-05-21T17:33:13;973.1;;;24.3;47.3
68873;BME280;55907;50.806;12.882;2023-05-21T17:36:15;973.1;;;24.2;48.1
68873;BME280;55907;50.806;12.882;2023-05-21T17:39:16;973.1;;;24.0;48.6
68873;BME280;55907;50.806;12.882;2023-05-21T17:42:17;973.1;;;24.0;49.0
68873;BME280;55907;50.806;12.882;2023-05-21T17:45:19;973.0;;;23.9;49.5
68873;BME280;55907;50.806;12.882;2023-05-21T17:48:20;973.1;;;23.8;49.7
68873;BME280;55907;50.806;12.882;2023-05-21T17:51:22;973.0;;;23.7;50.0
68873;BME280;55907;50.806;12.882;2023-05-21T17:54:23;973.0;;;23.6;50.4
68873;BME280;55907;50.806;12.882;2023-05-21T17:57:24;973.0;;;23.6;50.4
68873;BME280;55907;50.806;12.882;2023-05-21T18:00:26;973.0;;;23.5;50.7
68873;BME280;55907;50.806;12.882;2023-05-21T18:03:27;973.0;;;23.4;50.1
68873;BME280;55907;50.806;12.882;2023-05-21T18:06:29;973.1;;;23.4;50.5
68873;BME280;55907;50.806;12.882;2023-05-21T18:09:30;973.1;;;23.3;50.6
68873;BME280;55907;50.806;12.882;2023-05-21T18:12:31;973.1;;;23.3;50.6
68873;BME280;55907;50.806;12.882;2023-05-21T18:15:33;973.1;;;23.2;50.5
68873;BME280;55907;50.806;12.882;2023-05-21T18:18:34;973.1;;;23.2;50.8
68873;BME280;55907;50.806;12.882;2023-05-21T18:21:36;973.1;;;23.1;51.8
68873;BME280;55907;50.806;12.882;2023-05-21T18:24:37;973.2;;;23.0;51.0
68873;BME280;55907;50.806;12.882;2023-05-21T18:36:43;973.2;;;22.6;51.8
68873;BME280;55907;50.806;12.882;2023-05-21T18:39:44;973.2;;;22.5;51.8
68873;BME280;55907;50.806;12.882;2023-05-21T18:42:46;973.2;;;22.5;51.6
68873;BME280;55907;50.806;12.882;2023-05-21T18:48:48;973.2;;;22.4;52.3
68873;BME280;55907;50.806;12.882;2023-05-21T18:51:50;973.2;;;22.2;52.1
68873;BME280;55907;50.806;12.882;2023-05-21T18:57:53;973.3;;;22.1;52.6
68873;BME280;55907;50.806;12.882;2023-05-21T19:00:54;973.2;;;22.0;52.5
68873;BME280;55907;50.806;12.882;2023-05-21T19:03:55;973.3;;;21.8;53.0
68873;BME280;55907;50.806;12.882;2023-05-21T19:06:57;973.3;;;21.7;52.9
68873;BME280;55907;50.806;12.882;2023-05-21T19:09:58;973.3;;;21.7;53.5
68873;BME280;55907;50.806;12.882;2023-05-21T19:12:59;973.3;;;21.6;53.6
68873;BME280;55907;50.806;12.882;2023-05-21T19:16:01;973.3;;;21.6;54.2
68873;BME280;55907;50.806;12.882;2023-05-21T19:19:02;973.2;;;21.5;53.6
68873;BME280;55907;50.806;12.882;2023-05-21T19:22:04;973.3;;;21.4;53.7
68873;BME280;55907;50.806;12.882;2023-05-21T19:25:05;973.4;;;21.4;54.4
68873;BME280;55907;50.806;12.882;2023-05-21T19:28:07;973.4;;;21.3;54.5